createdAt,value
2022-12-31T00:01:52.224Z,54.75
2022-12-31T00:04:19.059Z,48.00
2022-12-31T00:06:47.186Z,47.00
2022-12-31T00:09:14.028Z,55.75
2022-12-31T00:11:40.990Z,48.00
2022-12-31T00:14:08.127Z,54.75
2022-12-31T00:16:38.159Z,47.25
2022-12-31T00:19:07.479Z,57.25
2022-12-31T00:21:35.332Z,59.25
2022-12-31T00:24:04.520Z,57.00
2022-12-31T00:26:33.287Z,52.33
2022-12-31T00:29:01.444Z,47.50
2022-12-31T00:31:31.557Z,47.00
2022-12-31T00:33:59.359Z,57.00
2022-12-31T00:36:31.906Z,47.00
2022-12-31T00:39:00.157Z,48.00
2022-12-31T00:41:28.212Z,53.50
2022-12-31T00:43:55.737Z,45.25
2022-12-31T00:46:22.839Z,57.00
2022-12-31T00:48:50.302Z,53.33
2022-12-31T00:51:20.996Z,57.00
2022-12-31T00:53:47.827Z,58.00
2022-12-31T00:56:18.673Z,57.00
2022-12-31T00:58:46.143Z,58.25
2022-12-31T01:01:20.465Z,53.50
2022-12-31T01:03:48.922Z,43.00
2022-12-31T01:06:16.229Z,57.00
2022-12-31T01:08:43.193Z,48.25
2022-12-31T01:11:22.743Z,57.25
2022-12-31T01:14:13.175Z,48.00
2022-12-31T01:16:52.234Z,51.33
2022-12-31T01:19:25.771Z,48.25
2022-12-31T01:21:53.324Z,48.25
2022-12-31T01:24:20.880Z,49.00
2022-12-31T01:26:50.963Z,48.25
2022-12-31T01:29:18.050Z,48.50
2022-12-31T01:31:44.892Z,58.00
2022-12-31T01:34:11.911Z,56.25
2022-12-31T01:36:39.140Z,48.00
2022-12-31T01:39:08.321Z,47.50
2022-12-31T01:41:38.063Z,49.00
2022-12-31T01:44:13.808Z,48.00
2022-12-31T01:46:42.452Z,49.00
2022-12-31T01:49:40.129Z,55.25
2022-12-31T01:52:11.073Z,47.00
2022-12-31T01:54:43.362Z,53.00
2022-12-31T01:57:12.316Z,48.25
2022-12-31T01:59:39.259Z,47.25
2022-12-31T02:02:06.483Z,48.25
2022-12-31T02:04:33.454Z,46.75
2022-12-31T02:07:03.632Z,54.00
2022-12-31T02:09:32.459Z,55.00
2022-12-31T02:11:59.941Z,59.00
2022-12-31T02:14:33.910Z,48.25
2022-12-31T02:17:09.806Z,55.75
2022-12-31T02:19:54.823Z,57.00
2022-12-31T02:22:44.209Z,51.67
2022-12-31T02:25:31.661Z,53.00
2022-12-31T02:28:13.360Z,57.00
2022-12-31T02:30:42.554Z,58.00
2022-12-31T02:33:33.175Z,48.25
2022-12-31T02:36:06.185Z,57.25
2022-12-31T02:38:39.029Z,57.00
2022-12-31T02:41:05.858Z,60.00
2022-12-31T02:43:32.639Z,57.00
2022-12-31T02:46:19.643Z,47.75
2022-12-31T02:49:01.786Z,59.00
2022-12-31T02:51:46.002Z,59.50
2022-12-31T02:54:33.778Z,50.00
2022-12-31T02:57:12.217Z,58.75
2022-12-31T03:00:11.819Z,48.25
2022-12-31T03:02:43.658Z,48.25
2022-12-31T03:05:13.060Z,47.00
2022-12-31T03:07:41.792Z,57.00
2022-12-31T03:10:09.232Z,49.00
2022-12-31T03:12:48.948Z,47.00
2022-12-31T03:15:33.240Z,57.25
2022-12-31T03:18:04.709Z,48.00
2022-12-31T03:20:57.975Z,55.75
2022-12-31T03:23:31.482Z,48.00
2022-12-31T03:25:59.916Z,57.25
2022-12-31T03:28:30.988Z,47.00
2022-12-31T03:31:01.632Z,48.25
2022-12-31T03:33:40.718Z,47.75
2022-12-31T03:36:16.568Z,52.00
2022-12-31T03:38:44.745Z,50.00
2022-12-31T03:41:13.268Z,45.25
2022-12-31T03:43:40.025Z,48.25
2022-12-31T03:46:08.985Z,59.00
2022-12-31T03:48:35.828Z,57.75
2022-12-31T03:51:05.006Z,58.50
2022-12-31T03:53:32.206Z,46.75
2022-12-31T03:55:58.972Z,46.50
2022-12-31T03:58:25.830Z,48.50
2022-12-31T04:00:52.740Z,48.00
2022-12-31T04:03:19.683Z,48.25
2022-12-31T04:05:53.323Z,48.25
2022-12-31T04:08:20.086Z,48.25
2022-12-31T04:10:46.870Z,57.00
2022-12-31T04:13:13.653Z,57.50
2022-12-31T04:15:40.551Z,48.25
2022-12-31T04:18:07.325Z,48.25
2022-12-31T04:20:34.251Z,57.00
2022-12-31T04:23:01.054Z,55.50
2022-12-31T04:25:27.829Z,56.25
2022-12-31T04:27:54.653Z,53.50
2022-12-31T04:30:21.444Z,53.75
2022-12-31T04:32:48.246Z,48.25
2022-12-31T04:35:15.082Z,48.25
2022-12-31T04:37:41.872Z,56.50
2022-12-31T04:40:09.555Z,59.00
2022-12-31T04:42:36.769Z,57.25
2022-12-31T04:45:05.017Z,57.75
2022-12-31T04:47:32.010Z,48.00
2022-12-31T04:49:58.906Z,57.00
2022-12-31T04:52:25.865Z,47.00
2022-12-31T04:54:52.639Z,54.50
2022-12-31T04:57:19.433Z,53.00
2022-12-31T04:59:46.219Z,48.25
2022-12-31T05:02:13.150Z,45.50
2022-12-31T05:04:40.035Z,48.25
2022-12-31T05:07:06.913Z,50.67
2022-12-31T05:09:33.758Z,48.25
2022-12-31T05:12:00.697Z,50.25
2022-12-31T05:14:27.549Z,58.25
2022-12-31T05:16:54.672Z,59.00
2022-12-31T05:19:21.544Z,48.00
2022-12-31T05:22:08.969Z,52.00
2022-12-31T05:24:36.206Z,49.00
2022-12-31T05:27:03.512Z,58.75
2022-12-31T05:29:35.580Z,53.00
2022-12-31T05:32:02.381Z,56.00
2022-12-31T05:34:30.558Z,47.00
2022-12-31T05:36:57.368Z,56.50
2022-12-31T05:39:24.131Z,59.00
2022-12-31T05:41:51.460Z,47.00
2022-12-31T05:44:18.308Z,60.25
2022-12-31T05:46:45.085Z,58.50
2022-12-31T05:49:11.856Z,49.00
2022-12-31T05:51:38.777Z,53.75
2022-12-31T05:54:05.719Z,48.25
2022-12-31T05:56:32.478Z,48.50
2022-12-31T05:59:00.726Z,60.00
2022-12-31T06:01:27.566Z,47.75
2022-12-31T06:03:54.495Z,47.00
2022-12-31T06:06:21.335Z,57.25
2022-12-31T06:08:51.715Z,48.00
2022-12-31T06:11:18.543Z,49.00
2022-12-31T06:13:45.366Z,57.00
2022-12-31T06:16:12.328Z,59.00
2022-12-31T06:18:39.470Z,49.00
2022-12-31T06:21:06.624Z,48.25
2022-12-31T06:23:33.411Z,55.25
2022-12-31T06:26:04.596Z,57.50
2022-12-31T06:28:31.654Z,44.00
2022-12-31T06:31:07.079Z,57.00
2022-12-31T06:33:35.083Z,58.75
2022-12-31T06:36:04.480Z,59.00
2022-12-31T06:38:33.678Z,59.00
2022-12-31T06:41:08.784Z,48.00
2022-12-31T06:43:36.504Z,60.75
2022-12-31T06:46:05.333Z,49.25
2022-12-31T06:48:32.633Z,48.00
2022-12-31T06:51:19.893Z,47.00
2022-12-31T06:53:48.642Z,53.50
2022-12-31T06:56:33.970Z,57.25
2022-12-31T06:59:02.875Z,55.25
2022-12-31T07:02:06.529Z,61.00
2022-12-31T07:04:51.421Z,47.00
2022-12-31T07:07:23.962Z,59.25
2022-12-31T07:10:17.791Z,58.00
2022-12-31T07:12:57.629Z,47.00
2022-12-31T07:15:44.895Z,58.00
2022-12-31T07:18:27.208Z,49.00
2022-12-31T07:20:54.271Z,50.00
2022-12-31T07:23:21.391Z,52.33
2022-12-31T07:26:00.294Z,59.00
2022-12-31T07:29:05.330Z,49.00
2022-12-31T07:32:06.008Z,59.25
2022-12-31T07:34:54.419Z,49.00
2022-12-31T07:37:39.637Z,57.00
2022-12-31T07:40:15.057Z,49.00
2022-12-31T07:43:24.198Z,49.00
2022-12-31T07:46:16.927Z,49.00
2022-12-31T07:48:44.354Z,54.75
2022-12-31T07:51:12.011Z,45.25
2022-12-31T07:53:39.522Z,55.25
2022-12-31T07:56:08.941Z,47.50
2022-12-31T07:58:57.781Z,48.25
2022-12-31T08:01:41.657Z,49.50
2022-12-31T08:04:28.143Z,57.25
2022-12-31T08:07:26.048Z,60.25
2022-12-31T08:10:17.276Z,57.50
2022-12-31T08:12:47.087Z,52.00
2022-12-31T08:15:16.010Z,54.50
2022-12-31T08:17:43.624Z,46.00
2022-12-31T08:20:15.974Z,57.25
2022-12-31T08:22:45.476Z,60.25
2022-12-31T08:25:53.325Z,54.25
2022-12-31T08:28:42.808Z,58.50
2022-12-31T08:31:24.715Z,53.00
2022-12-31T08:34:12.221Z,53.50
2022-12-31T08:37:06.592Z,47.50
2022-12-31T08:40:16.617Z,59.25
2022-12-31T08:43:09.381Z,49.00
2022-12-31T08:45:41.918Z,48.25
2022-12-31T08:48:27.207Z,49.00
2022-12-31T08:50:54.860Z,59.50
2022-12-31T08:53:21.889Z,61.25
2022-12-31T08:55:52.928Z,59.50
2022-12-31T08:58:32.460Z,59.50
2022-12-31T09:00:59.710Z,56.00
2022-12-31T09:03:45.082Z,60.75
2022-12-31T09:06:29.554Z,58.50
2022-12-31T09:09:13.676Z,58.00
2022-12-31T09:12:18.290Z,49.00
2022-12-31T09:15:14.982Z,62.00
2022-12-31T09:17:50.571Z,49.25
2022-12-31T09:20:44.731Z,55.25
2022-12-31T09:23:13.333Z,49.00
2022-12-31T09:26:14.413Z,47.00
2022-12-31T09:29:18.535Z,58.00
2022-12-31T09:32:00.122Z,56.50
2022-12-31T09:34:45.380Z,47.25
2022-12-31T09:37:38.149Z,47.00
2022-12-31T09:40:28.696Z,47.00
2022-12-31T09:43:33.312Z,49.00
2022-12-31T09:46:42.657Z,50.50
2022-12-31T09:49:24.641Z,59.25
2022-12-31T09:52:12.999Z,49.00
2022-12-31T09:55:07.420Z,49.00
2022-12-31T09:58:00.015Z,58.00
2022-12-31T10:01:03.938Z,60.00
2022-12-31T10:04:07.941Z,48.00
2022-12-31T10:07:00.697Z,59.25
2022-12-31T10:09:27.398Z,54.75
2022-12-31T10:11:56.764Z,46.50
2022-12-31T10:14:26.379Z,50.00
2022-12-31T10:17:13.919Z,49.50
2022-12-31T10:19:55.517Z,59.75
2022-12-31T10:22:36.905Z,58.00
2022-12-31T10:25:41.311Z,55.50
2022-12-31T10:28:23.005Z,61.25
2022-12-31T10:31:20.953Z,51.75
2022-12-31T10:34:17.287Z,56.00
2022-12-31T10:37:17.864Z,52.75
2022-12-31T10:40:03.317Z,53.00
2022-12-31T10:42:48.638Z,57.25
2022-12-31T10:45:21.107Z,61.00
2022-12-31T10:47:50.898Z,59.25
2022-12-31T10:50:39.562Z,49.25
2022-12-31T10:53:29.370Z,57.00
2022-12-31T10:56:14.532Z,49.00
2022-12-31T10:58:53.290Z,60.25
2022-12-31T11:01:35.275Z,52.00
2022-12-31T11:04:23.152Z,53.25
2022-12-31T11:07:16.994Z,49.00
2022-12-31T11:09:55.847Z,47.25
2022-12-31T11:12:41.147Z,59.00
2022-12-31T11:15:42.882Z,47.25
2022-12-31T11:18:27.271Z,46.25
2022-12-31T11:21:09.082Z,48.25
2022-12-31T11:23:44.938Z,53.25
2022-12-31T11:26:17.626Z,57.25
2022-12-31T11:28:44.565Z,56.75
2022-12-31T11:31:51.015Z,58.00
2022-12-31T11:34:24.481Z,61.25
2022-12-31T11:37:29.259Z,54.00
2022-12-31T11:39:58.682Z,49.00
2022-12-31T11:42:55.549Z,49.00
2022-12-31T11:45:50.231Z,47.25
2022-12-31T11:48:31.778Z,53.00
2022-12-31T11:51:01.750Z,57.00
2022-12-31T11:53:48.076Z,56.00
2022-12-31T11:56:21.253Z,48.75
2022-12-31T11:58:57.458Z,47.00
2022-12-31T12:01:32.147Z,47.25
2022-12-31T12:04:02.373Z,48.00
2022-12-31T12:06:32.268Z,46.00
2022-12-31T12:09:10.613Z,46.00
2022-12-31T12:11:40.940Z,58.25
2022-12-31T12:14:31.083Z,52.25
2022-12-31T12:17:04.356Z,53.00
2022-12-31T12:19:33.177Z,47.25
2022-12-31T12:22:11.156Z,54.00
2022-12-31T12:24:38.017Z,48.00
2022-12-31T12:27:05.159Z,47.25
2022-12-31T12:29:35.717Z,58.50
2022-12-31T12:32:25.087Z,48.25
2022-12-31T12:34:53.119Z,55.25
2022-12-31T12:37:34.511Z,57.25
2022-12-31T12:40:09.553Z,58.50
2022-12-31T12:42:36.376Z,57.25
2022-12-31T12:45:07.288Z,57.50
2022-12-31T12:47:35.111Z,48.75
2022-12-31T12:50:03.218Z,60.25
2022-12-31T12:52:29.952Z,57.25
2022-12-31T12:55:02.531Z,52.00
2022-12-31T12:57:45.415Z,48.25
2022-12-31T13:00:41.750Z,56.50
2022-12-31T13:03:23.049Z,49.00
2022-12-31T13:06:15.598Z,59.25
2022-12-31T13:08:48.137Z,53.00
2022-12-31T13:11:51.767Z,47.00
2022-12-31T13:14:30.896Z,58.75
2022-12-31T13:17:17.873Z,55.25
2022-12-31T13:20:02.445Z,48.25
2022-12-31T13:22:44.252Z,57.00
2022-12-31T13:25:27.839Z,48.25
2022-12-31T13:28:00.186Z,58.50
2022-12-31T13:30:38.117Z,59.50
2022-12-31T13:33:16.345Z,49.00
2022-12-31T13:35:52.357Z,60.00
2022-12-31T13:38:40.994Z,49.00
2022-12-31T13:41:19.713Z,49.00
2022-12-31T13:43:54.262Z,48.25
2022-12-31T13:46:44.995Z,47.00
2022-12-31T13:49:26.691Z,58.00
2022-12-31T13:52:03.913Z,52.75
2022-12-31T13:54:54.159Z,49.00
2022-12-31T13:57:41.157Z,60.00
2022-12-31T14:00:23.910Z,57.50
2022-12-31T14:02:59.633Z,56.00
2022-12-31T14:05:35.372Z,49.00
2022-12-31T14:08:05.047Z,48.75
2022-12-31T14:10:40.316Z,48.75
2022-12-31T14:13:34.380Z,48.25
2022-12-31T14:16:01.668Z,60.75
2022-12-31T14:18:44.924Z,60.25
2022-12-31T14:21:19.826Z,48.75
2022-12-31T14:23:55.704Z,49.00
2022-12-31T14:26:31.310Z,53.50
2022-12-31T14:29:03.030Z,87.75
2022-12-31T14:31:48.132Z,141.67
2022-12-31T14:34:36.488Z,191.75
2022-12-31T14:37:21.844Z,155.00
2022-12-31T14:40:15.740Z,121.25
2022-12-31T14:43:10.718Z,107.50
2022-12-31T14:46:04.299Z,103.25
2022-12-31T14:48:48.346Z,93.00
2022-12-31T14:51:15.815Z,96.75
2022-12-31T14:53:53.627Z,96.25
2022-12-31T14:56:32.466Z,91.25
2022-12-31T14:59:04.001Z,97.00
2022-12-31T15:01:30.946Z,91.25
2022-12-31T15:03:58.484Z,87.75
2022-12-31T15:06:40.376Z,87.50
2022-12-31T15:09:38.048Z,82.75
2022-12-31T15:12:51.528Z,88.00
2022-12-31T15:15:33.275Z,85.75
2022-12-31T15:18:19.006Z,85.25
2022-12-31T15:20:57.890Z,82.00
2022-12-31T15:23:33.072Z,69.00
2022-12-31T15:26:01.719Z,77.25
2022-12-31T15:28:40.992Z,70.00
2022-12-31T15:31:18.088Z,68.25
2022-12-31T15:34:04.624Z,68.25
2022-12-31T15:36:32.935Z,68.75
2022-12-31T15:39:11.836Z,77.25
2022-12-31T15:42:18.743Z,66.00
2022-12-31T15:44:44.112Z,64.67
2022-12-31T15:47:22.362Z,72.00
2022-12-31T15:49:50.986Z,69.25
2022-12-31T15:52:25.545Z,65.00
2022-12-31T15:54:57.256Z,66.25
2022-12-31T15:57:38.225Z,69.25
2022-12-31T16:00:14.873Z,65.67
2022-12-31T16:02:43.293Z,70.25
2022-12-31T16:05:22.596Z,61.00
2022-12-31T16:07:56.566Z,67.00
2022-12-31T16:10:31.992Z,60.00
2022-12-31T16:13:00.040Z,59.00
2022-12-31T16:15:30.470Z,62.00
2022-12-31T16:18:00.389Z,63.00
2022-12-31T16:20:33.702Z,60.00
2022-12-31T16:23:03.251Z,56.33
2022-12-31T16:25:33.677Z,67.50
2022-12-31T16:28:02.823Z,57.00
2022-12-31T16:30:32.317Z,67.50
2022-12-31T16:33:01.618Z,61.25
2022-12-31T16:35:34.319Z,67.25
2022-12-31T16:38:12.684Z,55.75
2022-12-31T16:40:42.657Z,63.75
2022-12-31T16:43:27.466Z,61.25
2022-12-31T16:46:07.248Z,66.00
2022-12-31T16:48:34.469Z,55.50
2022-12-31T16:51:01.472Z,61.25
2022-12-31T16:53:30.629Z,60.75
2022-12-31T16:56:09.184Z,63.25
2022-12-31T16:58:45.405Z,53.25
2022-12-31T17:01:23.743Z,65.75
2022-12-31T17:03:53.661Z,65.25
2022-12-31T17:06:23.325Z,64.00
2022-12-31T17:08:56.274Z,65.75
2022-12-31T17:11:32.299Z,63.75
2022-12-31T17:14:13.531Z,56.00
2022-12-31T17:17:02.614Z,54.00
2022-12-31T17:19:42.436Z,56.25
2022-12-31T17:22:32.968Z,56.50
2022-12-31T17:25:33.390Z,56.67
2022-12-31T17:28:07.865Z,59.75
2022-12-31T17:30:36.463Z,62.00
2022-12-31T17:33:04.583Z,57.00
2022-12-31T17:35:52.153Z,54.00
2022-12-31T17:38:21.764Z,66.00
2022-12-31T17:41:14.265Z,59.75
2022-12-31T17:43:42.645Z,52.25
2022-12-31T17:46:12.959Z,52.25
2022-12-31T17:48:41.054Z,66.00
2022-12-31T17:51:08.190Z,65.00
2022-12-31T17:53:35.341Z,54.25
2022-12-31T17:56:05.577Z,53.75
2022-12-31T17:58:42.600Z,65.50
2022-12-31T18:01:10.025Z,54.25
2022-12-31T18:03:36.931Z,54.00
2022-12-31T18:06:05.488Z,63.00
2022-12-31T18:08:32.334Z,63.75
2022-12-31T18:10:59.199Z,53.50
2022-12-31T18:13:27.778Z,59.50
2022-12-31T18:15:55.519Z,50.75
2022-12-31T18:18:25.850Z,51.50
2022-12-31T18:20:56.583Z,52.25
2022-12-31T18:23:27.803Z,59.50
2022-12-31T18:25:55.055Z,52.50
2022-12-31T18:28:21.957Z,57.25
2022-12-31T18:30:49.574Z,60.25
2022-12-31T18:33:22.297Z,61.00
2022-12-31T18:36:09.867Z,52.00
2022-12-31T18:38:36.942Z,54.25
2022-12-31T18:41:04.352Z,63.50
2022-12-31T18:43:33.633Z,62.50
2022-12-31T18:46:00.534Z,65.25
2022-12-31T18:48:27.378Z,67.50
2022-12-31T18:50:54.173Z,66.25
2022-12-31T18:53:23.105Z,58.67
2022-12-31T18:55:57.452Z,65.50
2022-12-31T18:58:24.731Z,68.25
2022-12-31T19:00:52.384Z,65.25
2022-12-31T19:03:22.502Z,65.25
2022-12-31T19:05:50.964Z,57.33
2022-12-31T19:08:22.487Z,55.50
2022-12-31T19:10:51.701Z,55.33
